Time;durP1;ratioP1;P1;durP2;ratioP2;P2;SDS_P1;SDS_P2;PMS_P1;PMS_P2;Temp;Humidity;BMP_temperature;BMP_pressure;BME280_temperature;BME280_humidity;BME280_pressure;Samples;Min_cycle;Max_cycle;Signal;HPM_P1;HPM_P2
2022/03/22 00:00:24;;;;;;;13.23;9.70;;;21.30;35.60;;;;;;5067005;28;20454;-83
2022/03/22 00:02:54;;;;;;;12.57;9.60;;;21.30;35.60;;;;;;5072915;28;20413;-85
2022/03/22 00:05:23;;;;;;;24.47;10.10;;;21.30;35.70;;;;;;5069720;28;20473;-84
2022/03/22 00:07:52;;;;;;;18.10;9.87;;;21.30;35.80;;;;;;5062896;28;20463;-85
2022/03/22 00:10:22;;;;;;;11.67;10.30;;;21.20;35.60;;;;;;5063486;28;20438;-85
2022/03/22 00:13:12;;;;;;;14.57;10.40;;;21.20;35.80;;;;;;5055836;28;20510;-85
2022/03/22 00:16:01;;;;;;;12.20;9.77;;;21.10;35.70;;;;;;5062556;28;20525;-84
2022/03/22 00:18:57;;;;;;;13.83;9.80;;;21.10;35.70;;;;;;5059655;28;20466;-84
2022/03/22 00:21:29;;;;;;;15.20;9.97;;;21.10;35.80;;;;;;5058969;28;20458;-84
2022/03/22 00:24:01;;;;;;;24.30;9.27;;;21.10;35.90;;;;;;5058476;28;20505;-84
2022/03/22 00:26:29;;;;;;;14.57;10.10;;;21.10;35.90;;;;;;5058437;28;20470;-84
2022/03/22 00:29:03;;;;;;;13.03;9.50;;;21.00;35.80;;;;;;5058693;28;20442;-84
2022/03/22 00:31:36;;;;;;;11.50;9.40;;;21.00;36.00;;;;;;5058580;28;20441;-84
2022/03/22 00:34:48;;;;;;;13.30;9.27;;;20.90;35.90;;;;;;5057092;28;20454;-84
2022/03/22 00:37:24;;;;;;;12.53;9.80;;;20.90;36.00;;;;;;5059663;28;20466;-84
2022/03/22 00:39:53;;;;;;;11.73;9.43;;;20.90;36.00;;;;;;5076478;28;20469;-85
2022/03/22 00:42:24;;;;;;;14.20;9.17;;;20.90;36.00;;;;;;5068147;28;20504;-85
2022/03/22 00:44:54;;;;;;;15.70;10.20;;;20.90;36.10;;;;;;5071894;28;20476;-85
2022/03/22 00:47:23;;;;;;;13.30;9.77;;;20.80;36.10;;;;;;5067662;28;20486;-85
2022/03/22 00:50:06;;;;;;;16.30;10.40;;;20.80;36.00;;;;;;5058588;28;20457;-85
2022/03/22 00:52:37;;;;;;;13.73;10.10;;;20.80;36.20;;;;;;5059269;28;20421;-85
2022/03/22 00:55:08;;;;;;;10.73;9.10;;;20.70;36.10;;;;;;5060313;28;20434;-85
2022/03/22 00:57:37;;;;;;;12.30;9.43;;;20.70;36.20;;;;;;5060443;28;20493;-85
2022/03/22 01:00:12;;;;;;;11.50;9.27;;;20.60;36.20;;;;;;5070916;28;20500;-85
2022/03/22 01:02:49;;;;;;;15.70;9.17;;;20.60;36.10;;;;;;5071704;28;20421;-84
2022/03/22 01:05:20;;;;;;;11.13;9.03;;;20.70;36.30;;;;;;5070684;28;20461;-84
2022/03/22 01:07:52;;;;;;;13.07;9.57;;;20.60;36.20;;;;;;5070821;28;20442;-83
2022/03/22 01:10:21;;;;;;;12.10;9.63;;;20.60;36.30;;;;;;5068129;28;20441;-83
2022/03/22 01:12:53;;;;;;;12.07;9.40;;;20.50;36.20;;;;;;5068013;28;20442;-84
2022/03/22 01:15:22;;;;;;;13.90;9.63;;;20.50;36.30;;;;;;5068802;28;20450;-84
2022/03/22 01:18:04;;;;;;;10.73;9.30;;;20.50;36.30;;;;;;5068077;28;20443;-84
2022/03/22 01:20:58;;;;;;;11.83;9.40;;;20.50;36.40;;;;;;5068096;28;20416;-85
2022/03/22 01:23:31;;;;;;;11.80;9.50;;;20.40;36.40;;;;;;5064504;28;20461;-84
2022/03/22 01:26:52;;;;;;;;;;;;;;;;;;;;;
2022/03/22 01:29:50;;;;;;;12.70;9.37;;;20.40;36.40;;;;;;5065648;28;20446;-85
2022/03/22 01:32:21;;;;;;;13.70;9.63;;;20.40;36.70;;;;;;5070192;28;20451;-86
2022/03/22 01:34:49;;;;;;;12.20;8.50;;;20.30;36.50;;;;;;5068618;28;20461;-85
2022/03/22 01:37:18;;;;;;;12.23;10.10;;;20.30;36.60;;;;;;5067957;28;20457;-84
2022/03/22 01:39:49;;;;;;;10.90;9.50;;;20.30;36.50;;;;;;5066274;28;20470;-84
2022/03/22 01:42:17;;;;;;;10.90;9.40;;;20.20;36.50;;;;;;5067089;28;20398;-84
2022/03/22 01:44:54;;;;;;;11.87;9.60;;;20.20;36.60;;;;;;5067563;28;20438;-84
2022/03/22 01:47:24;;;;;;;13.07;9.90;;;20.20;36.60;;;;;;5066783;28;20454;-84
2022/03/22 01:49:53;;;;;;;11.00;8.43;;;20.20;36.60;;;;;;5069648;28;20465;-83
2022/03/22 01:52:30;;;;;;;14.70;10.33;;;20.10;36.60;;;;;;5068445;28;20537;-84
2022/03/22 01:55:01;;;;;;;12.00;9.70;;;20.20;36.60;;;;;;5066928;28;20463;-83
2022/03/22 01:57:33;;;;;;;13.67;9.27;;;20.10;36.60;;;;;;5070040;28;20458;-84
2022/03/22 02:00:11;;;;;;;10.93;8.70;;;20.10;36.70;;;;;;5070438;28;20462;-84
2022/03/22 02:08:16;;;;;;;13.20;10.10;;;19.90;36.70;;;;;;5061704;28;20416;-85
2022/03/22 02:10:46;;;;;;;12.20;9.60;;;19.90;36.80;;;;;;5060703;28;20445;-84
2022/03/22 02:13:14;;;;;;;10.57;8.80;;;19.90;36.80;;;;;;5060276;28;20521;-84
2022/03/22 02:15:43;;;;;;;13.80;9.10;;;19.90;36.80;;;;;;5062951;28;20444;-84
2022/03/22 02:18:11;;;;;;;13.03;9.77;;;19.90;36.70;;;;;;5063632;28;20450;-85
2022/03/22 02:20:41;;;;;;;11.40;8.93;;;19.90;36.70;;;;;;5063140;28;20466;-85
2022/03/22 02:23:21;;;;;;;11.80;9.13;;;19.80;36.80;;;;;;5064206;28;20472;-85
2022/03/22 02:25:53;;;;;;;13.20;9.43;;;19.80;36.90;;;;;;5062505;28;20446;-83
2022/03/22 02:28:22;;;;;;;11.83;9.40;;;19.80;36.80;;;;;;5056138;28;20478;-85
2022/03/22 02:30:53;;;;;;;10.87;8.70;;;19.80;36.90;;;;;;5063382;28;20445;-84
2022/03/22 02:33:23;;;;;;;10.87;9.17;;;19.80;37.00;;;;;;5062895;28;20474;-84
2022/03/22 02:35:57;;;;;;;11.37;9.60;;;19.70;36.80;;;;;;5063735;28;20491;-83
2022/03/22 02:38:25;;;;;;;12.50;9.77;;;19.70;36.90;;;;;;5062203;28;20446;-84
2022/03/22 02:40:58;;;;;;;12.40;9.30;;;19.70;37.00;;;;;;5061609;28;20578;-83
2022/03/22 02:43:26;;;;;;;12.17;8.83;;;19.70;37.00;;;;;;5061916;28;20470;-83
2022/03/22 02:45:54;;;;;;;11.73;9.63;;;19.60;37.00;;;;;;5060841;28;20505;-84
2022/03/22 02:48:27;;;;;;;12.73;9.60;;;19.60;37.00;;;;;;5063885;28;20820;-86
2022/03/22 02:50:59;;;;;;;11.33;9.23;;;19.60;37.10;;;;;;5063583;28;20446;-85
2022/03/22 02:53:27;;;;;;;11.03;9.37;;;19.50;37.00;;;;;;5063877;28;20450;-85
2022/03/22 02:55:59;;;;;;;11.70;8.80;;;19.50;37.00;;;;;;5063367;28;20470;-85
2022/03/22 02:58:27;;;;;;;13.50;10.20;;;19.50;37.10;;;;;;5059467;28;20474;-85
2022/03/22 03:00:56;;;;;;;11.10;9.17;;;19.50;37.10;;;;;;5061478;28;20474;-85
2022/03/22 03:03:27;;;;;;;12.90;9.50;;;19.50;37.10;;;;;;5063884;28;20473;-85
2022/03/22 03:05:58;;;;;;;13.43;9.00;;;19.40;37.10;;;;;;5063905;28;20532;-85
2022/03/22 03:08:27;;;;;;;11.70;9.47;;;19.40;37.30;;;;;;5063750;28;20514;-85
2022/03/22 03:10:57;;;;;;;12.20;9.30;;;19.30;37.10;;;;;;5063002;28;20462;-85
2022/03/22 03:13:25;;;;;;;13.83;8.50;;;19.40;37.30;;;;;;5059184;28;20524;-85
2022/03/22 03:15:53;;;;;;;11.33;8.30;;;19.40;37.20;;;;;;5057304;28;20471;-85
2022/03/22 03:18:24;;;;;;;13.47;9.30;;;19.40;37.30;;;;;;5064008;28;20445;-85
2022/03/22 03:20:52;;;;;;;12.30;9.47;;;19.30;37.20;;;;;;5062809;28;20466;-84
2022/03/22 03:23:22;;;;;;;10.67;8.80;;;19.30;37.20;;;;;;5066969;28;20474;-84
2022/03/22 03:26:05;;;;;;;11.60;9.30;;;19.30;37.30;;;;;;5063179;28;20497;-85
2022/03/22 03:28:35;;;;;;;11.20;9.33;;;19.30;37.40;;;;;;5064796;28;20474;-84
2022/03/22 03:31:04;;;;;;;11.90;9.37;;;19.20;37.30;;;;;;5068288;28;20450;-85
2022/03/22 03:33:32;;;;;;;10.33;8.37;;;19.20;37.40;;;;;;5069666;28;20431;-85
2022/03/22 03:36:03;;;;;;;11.43;9.00;;;19.20;37.30;;;;;;5064366;28;20470;-85
2022/03/22 03:38:31;;;;;;;12.40;9.90;;;19.20;37.40;;;;;;5069187;28;20422;-84
2022/03/22 03:43:47;;;;;;;13.37;8.93;;;19.10;37.50;;;;;;5073760;28;20462;-84
2022/03/22 03:49:03;;;;;;;10.90;8.70;;;19.00;37.20;;;;;;5064526;28;20454;-85
2022/03/22 03:51:31;;;;;;;12.30;9.67;;;19.10;37.40;;;;;;5057450;28;20447;-85
2022/03/22 03:54:00;;;;;;;11.00;9.30;;;19.00;37.40;;;;;;5062255;28;20446;-85
2022/03/22 03:56:29;;;;;;;13.40;9.80;;;19.00;37.40;;;;;;5062776;28;20490;-85
2022/03/22 03:58:58;;;;;;;14.30;9.73;;;19.00;37.60;;;;;;5061875;28;20454;-84
2022/03/22 04:01:26;;;;;;;15.77;10.10;;;19.00;37.50;;;;;;5061986;28;20475;-85
2022/03/22 04:03:55;;;;;;;15.33;10.30;;;19.00;37.70;;;;;;5061956;28;20496;-85
2022/03/22 04:06:25;;;;;;;13.20;9.50;;;19.00;37.60;;;;;;5057453;28;20528;-85
2022/03/22 04:08:54;;;;;;;12.07;8.83;;;18.90;37.50;;;;;;5061864;28;20473;-85
2022/03/22 04:11:25;;;;;;;11.73;9.40;;;18.90;37.50;;;;;;5061175;28;20448;-84
2022/03/22 04:13:59;;;;;;;11.93;9.80;;;18.90;37.60;;;;;;5061848;28;20504;-84
2022/03/22 04:16:27;;;;;;;14.37;9.87;;;18.90;37.50;;;;;;5060916;28;20473;-85
2022/03/22 04:18:56;;;;;;;11.20;8.80;;;18.90;37.60;;;;;;5060954;28;20947;-85
2022/03/22 04:21:27;;;;;;;13.30;9.50;;;18.90;37.60;;;;;;5059845;28;20525;-84
2022/03/22 04:23:59;;;;;;;13.10;9.80;;;18.80;37.50;;;;;;5059053;28;20451;-85
2022/03/22 04:26:28;;;;;;;11.00;9.23;;;18.80;37.60;;;;;;5060826;28;20476;-84
2022/03/22 04:34:41;;;;;;;10.20;8.80;;;18.70;37.70;;;;;;5059979;28;20931;-84
2022/03/22 04:37:12;;;;;;;12.63;9.33;;;18.70;37.80;;;;;;5061474;28;20477;-84
2022/03/22 04:39:43;;;;;;;13.40;9.80;;;18.70;37.80;;;;;;5058701;28;20512;-85
2022/03/22 04:42:14;;;;;;;11.73;9.60;;;18.70;37.60;;;;;;5052647;28;20481;-85
2022/03/22 04:44:47;;;;;;;13.87;9.83;;;18.70;37.70;;;;;;5060133;28;20438;-85
2022/03/22 04:47:19;;;;;;;12.53;9.10;;;18.70;37.80;;;;;;5060419;28;20437;-85
2022/03/22 04:49:52;;;;;;;11.70;9.70;;;18.60;37.80;;;;;;5061184;28;20446;-85
2022/03/22 04:57:55;;;;;;;11.80;8.83;;;18.60;37.90;;;;;;5058460;28;20466;-85
2022/03/22 05:00:25;;;;;;;13.20;9.40;;;18.60;37.80;;;;;;5059296;28;20470;-85
2022/03/22 05:03:00;;;;;;;13.27;9.90;;;18.50;37.70;;;;;;5059871;28;20814;-85
2022/03/22 05:08:24;;;;;;;12.37;9.63;;;18.50;37.80;;;;;;5060577;28;20537;-85
2022/03/22 05:10:55;;;;;;;11.83;9.50;;;18.50;37.90;;;;;;5058937;28;20438;-84
2022/03/22 05:13:26;;;;;;;9.90;8.50;;;18.40;37.90;;;;;;5056568;28;20494;-85
2022/03/22 05:16:05;;;;;;;12.63;9.50;;;18.40;38.10;;;;;;5057953;28;20462;-84
2022/03/22 05:18:37;;;;;;;12.53;9.47;;;18.40;38.00;;;;;;5058345;28;20458;-84
2022/03/22 05:21:19;;;;;;;11.27;9.00;;;18.40;37.90;;;;;;5060954;28;20560;-85
2022/03/22 05:24:04;;;;;;;10.77;8.97;;;18.40;38.00;;;;;;5062270;28;20556;-85
2022/03/22 05:26:54;;;;;;;11.47;9.07;;;18.40;38.00;;;;;;5061608;28;20467;-86
2022/03/22 05:29:51;;;;;;;11.20;9.00;;;18.30;37.80;;;;;;5059358;28;20465;-84
2022/03/22 05:35:26;;;;;;;10.80;9.30;;;18.30;38.00;;;;;;5058369;28;20533;-84
2022/03/22 05:38:24;;;;;;;18.63;9.37;;;18.30;38.00;;;;;;5059956;28;20466;-84
2022/03/22 05:41:08;;;;;;;11.23;9.10;;;18.30;38.10;;;;;;5060332;28;20474;-83
2022/03/22 05:44:00;;;;;;;11.13;9.27;;;18.30;38.00;;;;;;5060096;28;20557;-84
2022/03/22 05:46:38;;;;;;;11.20;8.90;;;18.30;38.00;;;;;;5059123;28;20470;-83
2022/03/22 05:49:16;;;;;;;9.63;8.30;;;18.30;38.00;;;;;;5056342;28;20550;-84
2022/03/22 05:52:07;;;;;;;11.70;8.67;;;18.30;38.10;;;;;;5058399;28;20993;-83
2022/03/22 05:54:43;;;;;;;11.60;9.30;;;18.30;38.00;;;;;;5057464;28;20534;-85
2022/03/22 05:57:20;;;;;;;15.93;9.40;;;18.30;38.00;;;;;;5057464;28;20524;-84
2022/03/22 06:00:11;;;;;;;10.83;8.70;;;18.30;38.00;;;;;;5057367;28;20481;-85
2022/03/22 06:03:36;;;;;;;10.30;8.97;;;18.30;38.10;;;;;;5057668;28;20509;-85
2022/03/22 06:06:52;;;;;;;11.13;9.00;;;18.30;38.00;;;;;;5040577;28;20458;-84
2022/03/22 06:09:26;;;;;;;10.10;8.20;;;18.30;38.20;;;;;;5057516;28;20453;-84
2022/03/22 06:12:15;;;;;;;12.63;9.10;;;18.30;38.00;;;;;;5057174;28;20470;-86
2022/03/22 06:15:14;;;;;;;12.03;9.40;;;18.40;38.00;;;;;;5057355;28;20470;-84
2022/03/22 06:17:44;;;;;;;12.23;9.47;;;18.40;38.00;;;;;;5057035;28;20546;-84
2022/03/22 06:20:18;;;;;;;11.00;8.90;;;18.40;37.90;;;;;;5051980;28;20508;-84
2022/03/22 06:22:56;;;;;;;13.80;9.77;;;18.40;37.80;;;;;;5056862;28;20500;-84
2022/03/22 06:25:25;;;;;;;10.43;8.90;;;18.40;37.80;;;;;;5057300;28;20450;-85
2022/03/22 06:28:04;;;;;;;15.90;9.33;;;18.50;37.80;;;;;;5057467;28;20466;-85
2022/03/22 06:30:44;;;;;;;11.93;9.33;;;18.50;37.90;;;;;;5058503;28;20442;-86
2022/03/22 06:33:22;;;;;;;13.80;9.67;;;18.50;37.90;;;;;;5056663;28;20477;-84
2022/03/22 06:36:14;;;;;;;12.43;9.47;;;18.60;37.90;;;;;;5055076;28;20524;-85
2022/03/22 06:38:59;;;;;;;11.97;9.60;;;18.60;37.80;;;;;;5062568;28;20465;-85
2022/03/22 06:41:54;;;;;;;10.97;8.70;;;18.70;37.80;;;;;;5067246;28;20563;-85
2022/03/22 06:48:12;;;;;;;11.30;9.03;;;18.80;37.90;;;;;;5034763;28;20458;-85
2022/03/22 06:51:07;;;;;;;12.60;8.80;;;18.80;37.60;;;;;;5051266;28;20460;-86
2022/03/22 06:53:45;;;;;;;12.50;9.40;;;18.80;37.40;;;;;;5060214;28;20472;-85
2022/03/22 06:56:17;;;;;;;15.13;9.60;;;18.90;37.30;;;;;;5061041;28;20497;-87
2022/03/22 07:01:50;;;;;;;11.23;9.47;;;19.00;37.50;;;;;;5043126;28;20482;-85
2022/03/22 07:04:25;;;;;;;11.83;9.40;;;19.00;37.30;;;;;;5071979;28;20457;-85
2022/03/22 07:07:35;;;;;;;12.63;9.70;;;19.10;37.10;;;;;;5072187;28;20500;-86
2022/03/22 07:10:14;;;;;;;12.00;8.63;;;19.20;37.20;;;;;;5074220;28;20447;-86
2022/03/22 07:13:01;;;;;;;11.27;9.07;;;19.30;36.90;;;;;;5063151;28;20490;-85
2022/03/22 07:15:48;;;;;;;10.87;9.20;;;19.40;36.90;;;;;;5063538;28;20480;-84
2022/03/22 07:18:25;;;;;;;11.37;9.47;;;19.40;36.80;;;;;;5062628;28;20450;-87
2022/03/22 07:21:04;;;;;;;10.67;8.97;;;19.40;36.60;;;;;;5063255;28;20545;-85
2022/03/22 07:23:38;;;;;;;9.87;8.70;;;19.50;36.60;;;;;;5060112;28;20442;-85
2022/03/22 07:26:14;;;;;;;11.57;9.50;;;19.60;36.40;;;;;;5062962;28;20495;-85
2022/03/22 07:29:32;;;;;;;13.67;9.27;;;19.80;36.40;;;;;;5062530;28;20462;-85
2022/03/22 07:32:19;;;;;;;12.50;9.83;;;19.80;36.30;;;;;;5001929;28;20709;-85
2022/03/22 07:35:00;;;;;;;14.23;9.40;;;19.70;36.20;;;;;;5000205;28;20464;-84
2022/03/22 07:37:29;;;;;;;10.23;9.17;;;19.80;36.30;;;;;;5000528;28;20469;-85
2022/03/22 07:39:58;;;;;;;12.40;9.10;;;19.80;36.20;;;;;;4999783;28;20516;-85
2022/03/22 07:42:30;;;;;;;13.47;9.00;;;19.90;36.00;;;;;;5001212;28;20473;-85
2022/03/22 07:45:02;;;;;;;11.80;9.30;;;20.00;36.10;;;;;;5003055;28;20464;-84
2022/03/22 07:47:43;;;;;;;11.77;9.30;;;20.10;35.80;;;;;;5005820;28;20469;-85
2022/03/22 07:53:16;;;;;;;9.63;8.63;;;20.20;35.70;;;;;;5002904;28;20523;-86
2022/03/22 07:59:07;;;;;;;11.77;9.50;;;20.40;35.50;;;;;;5001678;28;20469;-86
2022/03/22 08:01:53;;;;;;;11.20;9.10;;;20.50;35.70;;;;;;5001629;28;20453;-86
2022/03/22 08:04:56;;;;;;;;;;;;;;;;;;;;;
2022/03/22 08:07:56;;;;;;;11.73;9.67;;;20.40;35.60;;;;;;4987531;28;20465;-86
2022/03/22 08:14:07;;;;;;;10.47;8.97;;;20.40;35.60;;;;;;5058087;28;20494;-86
2022/03/22 08:16:52;;;;;;;10.77;9.40;;;20.40;36.00;;;;;;5063448;28;20466;-86
2022/03/22 08:20:05;;;;;;;10.93;9.63;;;20.30;36.30;;;;;;5064936;28;20454;-85
2022/03/22 08:23:18;;;;;;;11.67;9.43;;;20.10;36.90;;;;;;5063842;28;20493;-87
2022/03/22 08:26:20;;;;;;;10.40;9.33;;;20.20;37.10;;;;;;5045323;28;20501;-87
2022/03/22 08:29:22;;;;;;;10.40;8.80;;;20.30;37.10;;;;;;5053759;28;20458;-87
2022/03/22 08:32:12;;;;;;;18.63;9.80;;;20.40;37.00;;;;;;5062721;28;20461;-86
2022/03/22 08:38:07;;;;;;;10.57;8.30;;;21.00;36.80;;;;;;5062219;28;20451;-85
2022/03/22 08:44:44;;;;;;;11.13;9.07;;;21.40;36.80;;;;;;5050146;28;20522;-86
2022/03/22 08:56:32;;;;;;;;;;;;;;;;;;;;;
2022/03/22 09:06:56;;;;;;;11.40;8.23;;;23.10;35.80;;;;;;4989782;28;20500;-85
2022/03/22 09:13:16;;;;;;;8.93;8.03;;;23.60;35.60;;;;;;4922687;29;20429;-84
2022/03/22 09:22:59;;;;;;;8.63;7.83;;;24.40;35.30;;;;;;4880953;29;20454;-84
2022/03/22 09:26:30;;;;;;;9.03;8.13;;;24.60;35.10;;;;;;4924516;29;20453;-85
2022/03/22 09:29:43;;;;;;;8.70;7.60;;;24.80;35.10;;;;;;4982188;28;20442;-84
2022/03/22 09:32:21;;;;;;;8.80;7.90;;;25.20;34.80;;;;;;4983841;28;20417;-84
2022/03/22 09:35:23;;;;;;;8.63;7.83;;;25.40;34.60;;;;;;5050444;28;20498;-84
2022/03/22 09:38:07;;;;;;;8.47;7.47;;;25.60;34.60;;;;;;5055905;28;20518;-84
2022/03/22 09:40:38;;;;;;;7.53;6.93;;;25.80;34.40;;;;;;5060321;28;20495;-83
2022/03/22 09:43:09;;;;;;;9.10;7.63;;;26.00;34.20;;;;;;5060739;28;20441;-83
2022/03/22 09:45:39;;;;;;;8.07;7.37;;;26.20;34.00;;;;;;5061505;28;20427;-83
2022/03/22 09:48:20;;;;;;;10.33;8.17;;;26.40;33.80;;;;;;5062331;28;20417;-84
2022/03/22 09:53:47;;;;;;;8.33;7.27;;;26.90;33.50;;;;;;5046806;28;20452;-83
2022/03/22 09:56:16;;;;;;;8.50;7.60;;;27.10;33.20;;;;;;5065696;28;20474;-82
2022/03/22 09:58:46;;;;;;;10.43;7.93;;;27.40;33.10;;;;;;5073096;28;20428;-83
2022/03/22 10:01:14;;;;;;;8.57;7.70;;;27.60;32.90;;;;;;5072825;28;20420;-83
2022/03/22 10:04:01;;;;;;;7.60;6.90;;;27.70;32.80;;;;;;5073065;28;20463;-83
2022/03/22 10:06:30;;;;;;;7.70;7.00;;;28.00;32.60;;;;;;5070592;28;20446;-83
2022/03/22 10:09:01;;;;;;;8.40;7.60;;;28.20;32.40;;;;;;5071431;28;20435;-84
2022/03/22 10:11:36;;;;;;;7.70;6.97;;;28.40;32.30;;;;;;5065990;28;20498;-83
2022/03/22 10:14:08;;;;;;;8.43;7.63;;;28.60;32.10;;;;;;5066796;28;20422;-84
2022/03/22 10:16:50;;;;;;;8.80;7.43;;;28.80;31.90;;;;;;5070427;28;20425;-83
2022/03/22 10:19:30;;;;;;;8.20;7.40;;;29.10;31.70;;;;;;5073312;28;20417;-84
2022/03/22 10:22:10;;;;;;;8.87;7.97;;;29.20;31.60;;;;;;5075542;28;20438;-85
2022/03/22 10:24:48;;;;;;;8.03;7.30;;;29.30;31.40;;;;;;5073418;28;20481;-84
2022/03/22 10:27:21;;;;;;;8.10;7.30;;;29.60;31.20;;;;;;5072810;28;20464;-83
2022/03/22 10:30:07;;;;;;;7.70;7.00;;;29.70;31.00;;;;;;5071510;28;20480;-84
2022/03/22 10:32:36;;;;;;;7.67;6.87;;;29.90;30.80;;;;;;5075424;28;20430;-84
2022/03/22 10:35:14;;;;;;;7.40;6.57;;;30.20;30.70;;;;;;5076041;28;20453;-84
2022/03/22 10:37:45;;;;;;;7.67;6.97;;;30.40;30.40;;;;;;5075758;28;20469;-85
2022/03/22 10:40:21;;;;;;;8.10;7.30;;;30.60;30.20;;;;;;5074387;28;20457;-84
2022/03/22 10:42:56;;;;;;;7.83;7.13;;;30.80;30.10;;;;;;5075166;28;20439;-84
2022/03/22 10:45:27;;;;;;;6.73;6.23;;;31.00;30.00;;;;;;5075551;28;20445;-84
2022/03/22 10:47:56;;;;;;;7.00;6.40;;;31.20;29.80;;;;;;5067492;28;20473;-84
2022/03/22 10:50:29;;;;;;;7.57;6.90;;;31.40;29.80;;;;;;5075782;28;20434;-84
2022/03/22 10:53:01;;;;;;;7.20;6.60;;;31.60;29.60;;;;;;5072069;28;20454;-84
2022/03/22 10:55:30;;;;;;;7.70;7.00;;;31.70;30.00;;;;;;5075019;28;20469;-83
2022/03/22 10:58:01;;;;;;;7.47;6.87;;;31.90;29.40;;;;;;5074483;28;20442;-83
2022/03/22 11:00:30;;;;;;;6.70;6.20;;;32.00;29.30;;;;;;5074157;28;20443;-84
2022/03/22 11:03:03;;;;;;;7.77;7.07;;;32.10;29.30;;;;;;5073771;28;20439;-84
2022/03/22 11:05:33;;;;;;;7.57;6.87;;;32.20;29.20;;;;;;5070838;28;20467;-84
2022/03/22 11:08:02;;;;;;;6.60;6.10;;;32.40;28.90;;;;;;5065598;28;20454;-84
2022/03/22 11:10:31;;;;;;;7.30;6.70;;;32.60;28.90;;;;;;5065785;28;20447;-84
2022/03/22 11:13:00;;;;;;;6.40;5.93;;;32.80;28.70;;;;;;5065867;28;20451;-84
2022/03/22 11:15:36;;;;;;;7.97;6.60;;;33.20;28.60;;;;;;5065212;28;20443;-85
2022/03/22 11:18:12;;;;;;;7.47;6.77;;;33.40;28.30;;;;;;5064877;28;20445;-84
2022/03/22 11:20:56;;;;;;;6.97;6.47;;;33.70;28.10;;;;;;5064337;28;20446;-84
2022/03/22 11:23:27;;;;;;;6.77;6.20;;;34.10;27.90;;;;;;5063540;28;20565;-84
2022/03/22 11:26:13;;;;;;;7.80;6.83;;;34.80;27.40;;;;;;5063626;28;20477;-84
2022/03/22 11:28:48;;;;;;;6.53;6.13;;;35.30;27.00;;;;;;5063646;28;20538;-84
2022/03/22 11:31:21;;;;;;;6.50;6.10;;;35.80;26.60;;;;;;5057226;28;20442;-83
2022/03/22 11:34:11;;;;;;;6.37;5.97;;;36.20;26.10;;;;;;5060806;28;20438;-84
2022/03/22 11:37:10;;;;;;;6.50;6.00;;;36.70;25.80;;;;;;5063013;28;20458;-84
2022/03/22 11:43:31;;;;;;;4.60;4.50;;;38.10;24.70;;;;;;5053381;28;20927;-84
2022/03/22 11:46:22;;;;;;;5.53;5.23;;;39.20;24.00;;;;;;5059251;28;20467;-85
2022/03/22 11:49:01;;;;;;;4.63;4.43;;;39.90;23.40;;;;;;5061052;28;20470;-84
2022/03/22 11:51:54;;;;;;;4.93;4.70;;;40.40;23.00;;;;;;5058149;28;20446;-84
2022/03/22 11:54:34;;;;;;;4.43;4.13;;;40.90;22.60;;;;;;5060199;28;20545;-85
2022/03/22 11:57:08;;;;;;;4.60;4.40;;;41.80;22.10;;;;;;5060361;28;20561;-84
2022/03/22 11:59:52;;;;;;;4.20;4.10;;;42.60;21.40;;;;;;5061748;28;20460;-85
2022/03/22 12:03:03;;;;;;;4.57;4.37;;;42.70;21.40;;;;;;5061366;28;20529;-84
2022/03/22 12:05:36;;;;;;;4.60;4.30;;;43.00;21.30;;;;;;5060823;28;20517;-84
2022/03/22 12:08:17;;;;;;;3.67;3.53;;;43.50;21.10;;;;;;5063685;28;20449;-84
2022/03/22 12:10:50;;;;;;;3.60;3.50;;;43.70;20.80;;;;;;5058790;28;20450;-84
2022/03/22 12:13:19;;;;;;;3.70;3.47;;;44.30;20.40;;;;;;5044067;28;20442;-84
2022/03/22 12:15:56;;;;;;;3.77;3.67;;;44.60;20.30;;;;;;5057315;28;20555;-84
2022/03/22 12:18:28;;;;;;;3.67;3.57;;;45.10;20.00;;;;;;5055582;28;20532;-84
2022/03/22 12:20:57;;;;;;;3.50;3.40;;;45.60;19.40;;;;;;5055093;28;20454;-84
2022/03/22 12:23:25;;;;;;;3.00;2.90;;;46.00;19.10;;;;;;5054265;28;20808;-86
2022/03/22 12:25:55;;;;;;;3.72;3.63;;;46.30;18.90;;;;;;5053541;28;20481;-86
2022/03/22 12:28:23;;;;;;;3.20;3.10;;;46.70;18.80;;;;;;5053469;28;20662;-85
2022/03/22 12:30:51;;;;;;;3.40;3.20;;;46.80;18.60;;;;;;5053730;28;20620;-83
2022/03/22 12:33:21;;;;;;;2.95;2.85;;;47.00;18.60;;;;;;5053871;28;20198;-84
2022/03/22 12:35:51;;;;;;;3.50;3.15;;;47.30;18.50;;;;;;5055728;28;20693;-84
2022/03/22 12:38:19;;;;;;;3.45;3.35;;;47.40;18.30;;;;;;5057362;28;20205;-85
2022/03/22 12:40:47;;;;;;;3.75;3.55;;;47.40;18.30;;;;;;5050288;28;20438;-84
2022/03/22 12:43:19;;;;;;;3.80;3.20;;;47.50;18.20;;;;;;5049627;28;20193;-85
2022/03/22 12:45:49;;;;;;;3.33;3.13;;;47.60;18.20;;;;;;5052256;28;20319;-83
2022/03/22 12:48:18;;;;;;;3.38;3.28;;;47.60;18.40;;;;;;5049839;28;20201;-84
2022/03/22 12:50:46;;;;;;;3.38;3.15;;;47.60;18.10;;;;;;5052703;28;20193;-85
2022/03/22 12:53:15;;;;;;;3.17;3.05;;;47.60;18.20;;;;;;5052502;28;20276;-84
2022/03/22 12:55:44;;;;;;;3.30;3.20;;;47.60;18.20;;;;;;5052526;28;20282;-84
2022/03/22 12:58:12;;;;;;;3.08;2.97;;;47.80;18.10;;;;;;5052549;28;20256;-87
2022/03/22 13:00:42;;;;;;;2.80;2.70;;;47.90;18.10;;;;;;5052746;28;20216;-85
2022/03/22 13:03:14;;;;;;;4.05;3.92;;;47.70;18.10;;;;;;5052680;28;20201;-86
2022/03/22 13:05:43;;;;;;;3.50;3.40;;;47.60;18.00;;;;;;5052473;28;20197;-86
2022/03/22 13:08:17;;;;;;;3.75;3.55;;;47.60;18.20;;;;;;5052981;28;20739;-86
2022/03/22 13:16:22;;;;;;;3.17;3.08;;;47.50;18.10;;;;;;5035297;28;20323;-84
2022/03/22 13:18:52;;;;;;;3.30;3.30;;;47.40;18.20;;;;;;5055328;28;20209;-84
2022/03/22 13:21:23;;;;;;;3.38;3.28;;;47.40;18.20;;;;;;5053989;28;20261;-84
2022/03/22 13:24:00;;;;;;;3.28;3.17;;;47.30;18.30;;;;;;5053650;28;20593;-84
2022/03/22 13:26:29;;;;;;;3.35;3.25;;;47.40;18.30;;;;;;5053425;28;20217;-84
2022/03/22 13:28:57;;;;;;;3.85;3.70;;;47.40;18.30;;;;;;5056704;28;20196;-83
2022/03/22 13:31:26;;;;;;;3.70;3.60;;;47.50;18.20;;;;;;5066696;28;20181;-85
2022/03/22 13:33:55;;;;;;;3.40;3.30;;;47.40;18.30;;;;;;5075756;28;20215;-84
2022/03/22 13:36:23;;;;;;;3.20;3.00;;;47.40;18.20;;;;;;5075072;28;20217;-85
2022/03/22 13:38:52;;;;;;;3.63;3.53;;;47.10;18.20;;;;;;5076475;28;20189;-84
2022/03/22 13:41:26;;;;;;;3.50;3.28;;;47.00;18.40;;;;;;5065220;28;20216;-84
2022/03/22 13:43:54;;;;;;;3.17;3.08;;;47.00;18.40;;;;;;5056188;28;20205;-84
2022/03/22 13:46:22;;;;;;;3.87;3.70;;;46.60;18.50;;;;;;5055791;28;20213;-84
2022/03/22 13:48:53;;;;;;;5.13;4.20;;;46.00;18.70;;;;;;5057162;28;20485;-82
2022/03/22 13:51:23;;;;;;;3.80;3.70;;;45.50;18.90;;;;;;5057785;28;20426;-84
2022/03/22 13:53:53;;;;;;;4.20;4.10;;;45.30;19.10;;;;;;5056568;28;20434;-83
2022/03/22 13:56:23;;;;;;;4.67;4.47;;;45.00;19.20;;;;;;5057041;28;20528;-83
2022/03/22 13:58:51;;;;;;;4.20;4.00;;;44.70;19.40;;;;;;5062316;28;20448;-82
2022/03/22 14:01:19;;;;;;;4.20;4.00;;;44.20;19.50;;;;;;5061399;28;20478;-82
2022/03/22 14:03:48;;;;;;;4.07;3.97;;;44.00;19.80;;;;;;5060896;28;20466;-83
2022/03/22 14:06:18;;;;;;;4.17;4.07;;;43.80;19.90;;;;;;5061867;28;20468;-83
2022/03/22 14:08:46;;;;;;;5.20;4.90;;;44.00;19.90;;;;;;5061913;28;20472;-83
2022/03/22 14:11:16;;;;;;;3.80;3.70;;;44.20;19.80;;;;;;5062388;28;20460;-83
2022/03/22 14:13:44;;;;;;;3.83;3.73;;;44.50;19.60;;;;;;5055073;28;20454;-83
2022/03/22 14:16:12;;;;;;;4.20;3.90;;;44.30;19.40;;;;;;5054353;28;20469;-82
2022/03/22 14:18:40;;;;;;;4.23;4.07;;;43.90;20.20;;;;;;5061943;28;20446;-83
2022/03/22 14:21:08;;;;;;;4.10;4.00;;;43.70;19.80;;;;;;5061014;28;21046;-84
2022/03/22 14:23:38;;;;;;;4.50;4.30;;;43.60;19.80;;;;;;5062155;28;20438;-83
2022/03/22 14:26:06;;;;;;;3.83;3.73;;;43.80;19.90;;;;;;5062540;28;20492;-84
2022/03/22 14:28:34;;;;;;;4.73;4.47;;;44.00;19.70;;;;;;5061044;28;20446;-84
2022/03/22 14:31:03;;;;;;;3.90;3.80;;;44.10;19.70;;;;;;5057510;28;20460;-84
2022/03/22 14:33:31;;;;;;;4.03;3.83;;;44.20;19.50;;;;;;5062589;28;20438;-83
2022/03/22 14:35:58;;;;;;;3.60;3.50;;;43.90;19.60;;;;;;5063051;28;20516;-84
2022/03/22 14:38:27;;;;;;;3.97;3.67;;;44.10;19.70;;;;;;5064528;28;20461;-84
2022/03/22 14:41:00;;;;;;;3.90;3.80;;;44.20;19.50;;;;;;5060932;28;20442;-83
2022/03/22 14:43:29;;;;;;;4.50;4.30;;;44.00;19.70;;;;;;5061873;28;20457;-84
2022/03/22 14:45:58;;;;;;;3.90;3.80;;;44.00;19.60;;;;;;5062237;28;20525;-85
2022/03/22 14:48:26;;;;;;;4.20;4.10;;;44.00;19.60;;;;;;5058139;28;20450;-84
2022/03/22 14:50:55;;;;;;;3.60;3.50;;;44.00;19.50;;;;;;5061957;28;20530;-84
2022/03/22 14:58:56;;;;;;;4.07;3.97;;;43.90;19.60;;;;;;5061140;28;20453;-83
2022/03/22 15:01:25;;;;;;;4.00;3.90;;;43.60;19.80;;;;;;5062022;28;20449;-84
2022/03/22 15:03:54;;;;;;;4.07;3.97;;;43.40;19.90;;;;;;5059775;28;20512;-84